sensor_id;sensor_type;location;lat;lon;timestamp;temperature;humidity
45619;DHT22;31343;47.520;19.144;2023-03-18T00:02:09;3.70;92.80
45619;DHT22;31343;47.520;19.144;2023-03-18T00:04:35;3.60;92.60
45619;DHT22;31343;47.520;19.144;2023-03-18T00:07:02;3.60;93.00
45619;DHT22;31343;47.520;19.144;2023-03-18T00:09:27;3.60;93.30
45619;DHT22;31343;47.520;19.144;2023-03-18T00:11:53;3.50;93.00
45619;DHT22;31343;47.520;19.144;2023-03-18T00:14:21;3.50;93.30
45619;DHT22;31343;47.520;19.144;2023-03-18T00:16:47;3.50;93.70
45619;DHT22;31343;47.520;19.144;2023-03-18T00:19:14;3.50;93.50
45619;DHT22;31343;47.520;19.144;2023-03-18T00:21:39;3.50;93.60
45619;DHT22;31343;47.520;19.144;2023-03-18T00:24:05;3.40;93.60
45619;DHT22;31343;47.520;19.144;2023-03-18T00:26:31;3.50;94.30
45619;DHT22;31343;47.520;19.144;2023-03-18T00:28:57;3.40;94.20
45619;DHT22;31343;47.520;19.144;2023-03-18T00:31:24;3.40;93.80
45619;DHT22;31343;47.520;19.144;2023-03-18T00:33:51;3.30;93.80
45619;DHT22;31343;47.520;19.144;2023-03-18T00:36:17;3.20;94.00
45619;DHT22;31343;47.520;19.144;2023-03-18T00:38:45;3.20;94.30
45619;DHT22;31343;47.520;19.144;2023-03-18T00:41:12;3.20;94.80
45619;DHT22;31343;47.520;19.144;2023-03-18T00:43:46;3.20;95.20
45619;DHT22;31343;47.520;19.144;2023-03-18T00:46:19;3.10;95.30
45619;DHT22;31343;47.520;19.144;2023-03-18T00:48:45;3.10;95.00
45619;DHT22;31343;47.520;19.144;2023-03-18T00:51:12;3.20;95.10
45619;DHT22;31343;47.520;19.144;2023-03-18T00:53:42;3.20;95.30
45619;DHT22;31343;47.520;19.144;2023-03-18T00:56:10;3.10;95.70
45619;DHT22;31343;47.520;19.144;2023-03-18T00:58:36;3.10;95.90
45619;DHT22;31343;47.520;19.144;2023-03-18T01:01:04;3.10;95.60
45619;DHT22;31343;47.520;19.144;2023-03-18T01:03:30;3.00;96.00
45619;DHT22;31343;47.520;19.144;2023-03-18T01:05:57;3.10;96.00
45619;DHT22;31343;47.520;19.144;2023-03-18T01:08:23;3.10;96.00
45619;DHT22;31343;47.520;19.144;2023-03-18T01:10:49;3.00;96.30
45619;DHT22;31343;47.520;19.144;2023-03-18T01:13:15;3.00;96.10
45619;DHT22;31343;47.520;19.144;2023-03-18T01:15:41;3.00;96.00
45619;DHT22;31343;47.520;19.144;2023-03-18T01:18:08;2.90;95.90
45619;DHT22;31343;47.520;19.144;2023-03-18T01:20:37;2.90;96.10
45619;DHT22;31343;47.520;19.144;2023-03-18T01:23:04;3.00;96.00
45619;DHT22;31343;47.520;19.144;2023-03-18T01:25:30;3.00;96.10
45619;DHT22;31343;47.520;19.144;2023-03-18T01:27:56;3.00;96.20
45619;DHT22;31343;47.520;19.144;2023-03-18T01:30:23;3.00;96.20
45619;DHT22;31343;47.520;19.144;2023-03-18T01:32:48;2.90;96.30
45619;DHT22;31343;47.520;19.144;2023-03-18T01:35:15;2.90;96.70
45619;DHT22;31343;47.520;19.144;2023-03-18T01:37:41;2.90;96.60
45619;DHT22;31343;47.520;19.144;2023-03-18T01:40:09;2.90;96.80
45619;DHT22;31343;47.520;19.144;2023-03-18T01:42:36;2.80;97.00
45619;DHT22;31343;47.520;19.144;2023-03-18T01:45:23;2.70;97.00
45619;DHT22;31343;47.520;19.144;2023-03-18T01:47:50;2.70;97.30
45619;DHT22;31343;47.520;19.144;2023-03-18T01:50:20;2.70;97.20
45619;DHT22;31343;47.520;19.144;2023-03-18T01:52:48;2.60;97.30
45619;DHT22;31343;47.520;19.144;2023-03-18T01:55:20;2.70;97.30
45619;DHT22;31343;47.520;19.144;2023-03-18T01:57:48;2.60;97.40
45619;DHT22;31343;47.520;19.144;2023-03-18T02:00:15;2.60;97.50
45619;DHT22;31343;47.520;19.144;2023-03-18T02:02:43;2.60;97.80
45619;DHT22;31343;47.520;19.144;2023-03-18T02:05:11;2.50;97.60
45619;DHT22;31343;47.520;19.144;2023-03-18T02:07:40;2.50;97.70
45619;DHT22;31343;47.520;19.144;2023-03-18T02:10:14;2.50;98.20
45619;DHT22;31343;47.520;19.144;2023-03-18T02:12:44;2.50;98.50
45619;DHT22;31343;47.520;19.144;2023-03-18T02:15:15;2.40;98.60
45619;DHT22;31343;47.520;19.144;2023-03-18T02:17:48;2.40;99.00
45619;DHT22;31343;47.520;19.144;2023-03-18T02:26:03;2.30;99.40
45619;DHT22;31343;47.520;19.144;2023-03-18T02:28:33;2.30;99.80
45619;DHT22;31343;47.520;19.144;2023-03-18T02:31:03;2.30;99.90
45619;DHT22;31343;47.520;19.144;2023-03-18T02:33:33;2.20;99.90
45619;DHT22;31343;47.520;19.144;2023-03-18T02:36:06;2.30;99.90
45619;DHT22;31343;47.520;19.144;2023-03-18T02:38:33;2.30;99.90
45619;DHT22;31343;47.520;19.144;2023-03-18T02:40:58;2.30;99.90
45619;DHT22;31343;47.520;19.144;2023-03-18T02:43:30;2.30;99.90
45619;DHT22;31343;47.520;19.144;2023-03-18T02:46:00;2.30;99.90
45619;DHT22;31343;47.520;19.144;2023-03-18T02:48:34;2.30;99.90
45619;DHT22;31343;47.520;19.144;2023-03-18T02:51:01;2.30;99.90
45619;DHT22;31343;47.520;19.144;2023-03-18T02:53:26;2.30;99.90
45619;DHT22;31343;47.520;19.144;2023-03-18T02:55:52;2.30;99.90
45619;DHT22;31343;47.520;19.144;2023-03-18T02:58:18;2.20;99.90
45619;DHT22;31343;47.520;19.144;2023-03-18T03:00:44;2.20;99.90
45619;DHT22;31343;47.520;19.144;2023-03-18T03:03:10;2.20;99.90
45619;DHT22;31343;47.520;19.144;2023-03-18T03:05:36;2.20;99.90
45619;DHT22;31343;47.520;19.144;2023-03-18T03:08:02;2.30;99.90
45619;DHT22;31343;47.520;19.144;2023-03-18T03:10:28;2.20;99.90
45619;DHT22;31343;47.520;19.144;2023-03-18T03:12:55;2.20;99.90
45619;DHT22;31343;47.520;19.144;2023-03-18T03:15:21;2.20;99.90
45619;DHT22;31343;47.520;19.144;2023-03-18T03:17:47;2.20;99.90
45619;DHT22;31343;47.520;19.144;2023-03-18T03:20:14;2.10;99.90
45619;DHT22;31343;47.520;19.144;2023-03-18T03:22:41;2.00;99.90
45619;DHT22;31343;47.520;19.144;2023-03-18T03:25:09;2.00;99.90
45619;DHT22;31343;47.520;19.144;2023-03-18T03:27:35;2.00;99.90
45619;DHT22;31343;47.520;19.144;2023-03-18T03:30:05;1.90;99.90
45619;DHT22;31343;47.520;19.144;2023-03-18T03:32:31;1.80;99.90
45619;DHT22;31343;47.520;19.144;2023-03-18T03:34:57;1.90;99.90
45619;DHT22;31343;47.520;19.144;2023-03-18T03:37:23;1.80;99.90
45619;DHT22;31343;47.520;19.144;2023-03-18T03:39:48;1.80;99.90
45619;DHT22;31343;47.520;19.144;2023-03-18T03:42:15;1.80;99.90
45619;DHT22;31343;47.520;19.144;2023-03-18T03:44:40;1.70;99.90
45619;DHT22;31343;47.520;19.144;2023-03-18T03:47:06;1.70;99.90
45619;DHT22;31343;47.520;19.144;2023-03-18T03:49:32;1.70;99.90
45619;DHT22;31343;47.520;19.144;2023-03-18T03:51:58;1.70;99.90
45619;DHT22;31343;47.520;19.144;2023-03-18T03:54:24;1.80;99.90
45619;DHT22;31343;47.520;19.144;2023-03-18T03:56:50;1.70;99.90
45619;DHT22;31343;47.520;19.144;2023-03-18T03:59:17;1.60;99.90
45619;DHT22;31343;47.520;19.144;2023-03-18T04:01:43;1.60;99.90
45619;DHT22;31343;47.520;19.144;2023-03-18T04:04:09;1.60;99.90
45619;DHT22;31343;47.520;19.144;2023-03-18T04:06:35;1.50;99.90
45619;DHT22;31343;47.520;19.144;2023-03-18T04:09:02;1.40;99.90
45619;DHT22;31343;47.520;19.144;2023-03-18T04:11:28;1.30;99.90
45619;DHT22;31343;47.520;19.144;2023-03-18T04:13:54;1.10;99.90
45619;DHT22;31343;47.520;19.144;2023-03-18T04:16:20;1.20;99.90
45619;DHT22;31343;47.520;19.144;2023-03-18T04:18:46;1.20;99.90
45619;DHT22;31343;47.520;19.144;2023-03-18T04:21:12;1.20;99.90
45619;DHT22;31343;47.520;19.144;2023-03-18T04:23:38;1.20;99.90
45619;DHT22;31343;47.520;19.144;2023-03-18T04:26:04;1.20;99.90
45619;DHT22;31343;47.520;19.144;2023-03-18T04:28:30;1.20;99.90
45619;DHT22;31343;47.520;19.144;2023-03-18T04:30:56;1.20;99.90
45619;DHT22;31343;47.520;19.144;2023-03-18T04:33:22;1.10;99.90
45619;DHT22;31343;47.520;19.144;2023-03-18T04:35:49;0.90;99.90
45619;DHT22;31343;47.520;19.144;2023-03-18T04:38:15;0.90;99.90
45619;DHT22;31343;47.520;19.144;2023-03-18T04:40:41;0.90;99.90
45619;DHT22;31343;47.520;19.144;2023-03-18T04:43:07;1.00;99.90
45619;DHT22;31343;47.520;19.144;2023-03-18T04:45:35;1.00;99.90
45619;DHT22;31343;47.520;19.144;2023-03-18T04:48:01;1.00;99.90
45619;DHT22;31343;47.520;19.144;2023-03-18T04:50:27;1.00;99.90
45619;DHT22;31343;47.520;19.144;2023-03-18T04:52:53;1.00;99.90
45619;DHT22;31343;47.520;19.144;2023-03-18T04:55:20;1.10;99.90
45619;DHT22;31343;47.520;19.144;2023-03-18T04:57:46;1.10;99.90
45619;DHT22;31343;47.520;19.144;2023-03-18T05:00:15;1.10;99.90
45619;DHT22;31343;47.520;19.144;2023-03-18T05:02:42;1.10;99.90
45619;DHT22;31343;47.520;19.144;2023-03-18T05:05:09;1.20;99.90
45619;DHT22;31343;47.520;19.144;2023-03-18T05:07:35;1.20;99.90
45619;DHT22;31343;47.520;19.144;2023-03-18T05:10:03;1.30;99.90
45619;DHT22;31343;47.520;19.144;2023-03-18T05:12:31;1.30;99.90
45619;DHT22;31343;47.520;19.144;2023-03-18T05:14:57;1.40;99.90
45619;DHT22;31343;47.520;19.144;2023-03-18T05:17:23;1.50;99.90
45619;DHT22;31343;47.520;19.144;2023-03-18T05:19:50;1.60;99.90
45619;DHT22;31343;47.520;19.144;2023-03-18T05:22:18;1.70;99.90
45619;DHT22;31343;47.520;19.144;2023-03-18T05:24:44;1.80;99.90
45619;DHT22;31343;47.520;19.144;2023-03-18T05:27:14;1.80;99.90
45619;DHT22;31343;47.520;19.144;2023-03-18T05:29:42;2.10;99.90
45619;DHT22;31343;47.520;19.144;2023-03-18T05:32:09;2.30;99.90
45619;DHT22;31343;47.520;19.144;2023-03-18T05:34:36;2.60;99.90
45619;DHT22;31343;47.520;19.144;2023-03-18T05:37:03;3.50;99.90
45619;DHT22;31343;47.520;19.144;2023-03-18T05:39:30;4.60;98.10
45619;DHT22;31343;47.520;19.144;2023-03-18T05:41:56;5.30;95.80
45619;DHT22;31343;47.520;19.144;2023-03-18T05:44:23;6.10;94.60
45619;DHT22;31343;47.520;19.144;2023-03-18T05:46:49;6.40;92.70
45619;DHT22;31343;47.520;19.144;2023-03-18T05:49:20;6.90;92.30
45619;DHT22;31343;47.520;19.144;2023-03-18T05:51:46;7.00;91.00
45619;DHT22;31343;47.520;19.144;2023-03-18T05:54:12;7.80;90.70
45619;DHT22;31343;47.520;19.144;2023-03-18T05:56:38;7.90;89.60
45619;DHT22;31343;47.520;19.144;2023-03-18T05:59:05;8.00;89.50
45619;DHT22;31343;47.520;19.144;2023-03-18T06:01:32;8.00;87.70
45619;DHT22;31343;47.520;19.144;2023-03-18T06:03:59;8.80;86.90
45619;DHT22;31343;47.520;19.144;2023-03-18T06:06:25;8.80;85.90
45619;DHT22;31343;47.520;19.144;2023-03-18T06:08:52;9.50;82.90
45619;DHT22;31343;47.520;19.144;2023-03-18T06:11:18;9.70;81.70
45619;DHT22;31343;47.520;19.144;2023-03-18T06:13:44;10.40;79.70
45619;DHT22;31343;47.520;19.144;2023-03-18T06:16:10;10.90;77.30
45619;DHT22;31343;47.520;19.144;2023-03-18T06:18:37;12.00;72.90
45619;DHT22;31343;47.520;19.144;2023-03-18T06:21:03;11.90;72.50
45619;DHT22;31343;47.520;19.144;2023-03-18T06:23:29;11.80;71.50
45619;DHT22;31343;47.520;19.144;2023-03-18T06:25:56;11.30;72.60
45619;DHT22;31343;47.520;19.144;2023-03-18T06:28:22;11.30;72.70
45619;DHT22;31343;47.520;19.144;2023-03-18T06:30:47;11.30;73.10
45619;DHT22;31343;47.520;19.144;2023-03-18T06:33:13;12.20;71.10
45619;DHT22;31343;47.520;19.144;2023-03-18T06:35:39;12.90;68.90
45619;DHT22;31343;47.520;19.144;2023-03-18T06:38:05;13.30;67.80
45619;DHT22;31343;47.520;19.144;2023-03-18T06:40:33;12.90;66.60
45619;DHT22;31343;47.520;19.144;2023-03-18T06:42:58;12.10;68.30
45619;DHT22;31343;47.520;19.144;2023-03-18T06:45:24;11.60;69.50
45619;DHT22;31343;47.520;19.144;2023-03-18T06:47:50;10.60;71.40
45619;DHT22;31343;47.520;19.144;2023-03-18T06:50:16;10.30;71.70
45619;DHT22;31343;47.520;19.144;2023-03-18T06:52:42;10.10;72.90
45619;DHT22;31343;47.520;19.144;2023-03-18T06:55:09;10.30;73.00
45619;DHT22;31343;47.520;19.144;2023-03-18T06:57:35;10.40;72.60
45619;DHT22;31343;47.520;19.144;2023-03-18T07:00:01;10.50;72.80
45619;DHT22;31343;47.520;19.144;2023-03-18T07:02:27;11.00;71.10
45619;DHT22;31343;47.520;19.144;2023-03-18T07:04:52;11.30;71.20
45619;DHT22;31343;47.520;19.144;2023-03-18T07:07:20;11.80;70.20
45619;DHT22;31343;47.520;19.144;2023-03-18T07:09:46;12.70;69.10
45619;DHT22;31343;47.520;19.144;2023-03-18T07:12:13;13.90;66.90
45619;DHT22;31343;47.520;19.144;2023-03-18T07:14:39;14.90;65.00
45619;DHT22;31343;47.520;19.144;2023-03-18T07:17:05;15.40;62.20
45619;DHT22;31343;47.520;19.144;2023-03-18T07:19:31;16.20;61.40
45619;DHT22;31343;47.520;19.144;2023-03-18T07:21:58;16.80;59.50
45619;DHT22;31343;47.520;19.144;2023-03-18T07:24:24;17.40;58.00
45619;DHT22;31343;47.520;19.144;2023-03-18T07:26:50;17.80;56.90
45619;DHT22;31343;47.520;19.144;2023-03-18T07:29:17;18.00;55.80
45619;DHT22;31343;47.520;19.144;2023-03-18T07:31:44;18.10;55.70
45619;DHT22;31343;47.520;19.144;2023-03-18T07:34:11;18.40;54.60
45619;DHT22;31343;47.520;19.144;2023-03-18T07:36:37;18.40;54.70
45619;DHT22;31343;47.520;19.144;2023-03-18T07:39:04;18.00;53.80
45619;DHT22;31343;47.520;19.144;2023-03-18T07:41:30;17.00;54.80
45619;DHT22;31343;47.520;19.144;2023-03-18T07:43:55;16.60;55.80
45619;DHT22;31343;47.520;19.144;2023-03-18T07:46:21;17.10;55.30
45619;DHT22;31343;47.520;19.144;2023-03-18T07:48:47;16.90;54.00
45619;DHT22;31343;47.520;19.144;2023-03-18T07:51:14;15.80;55.00
45619;DHT22;31343;47.520;19.144;2023-03-18T07:53:41;15.10;56.10
45619;DHT22;31343;47.520;19.144;2023-03-18T07:56:07;14.30;56.40
45619;DHT22;31343;47.520;19.144;2023-03-18T07:58:35;13.00;57.90
45619;DHT22;31343;47.520;19.144;2023-03-18T08:01:01;12.00;59.90
45619;DHT22;31343;47.520;19.144;2023-03-18T08:03:27;11.20;61.20
45619;DHT22;31343;47.520;19.144;2023-03-18T08:05:53;11.50;61.50
45619;DHT22;31343;47.520;19.144;2023-03-18T08:08:19;12.00;61.80
45619;DHT22;31343;47.520;19.144;2023-03-18T08:10:46;12.40;60.70
45619;DHT22;31343;47.520;19.144;2023-03-18T08:13:12;12.40;60.70
45619;DHT22;31343;47.520;19.144;2023-03-18T08:15:38;12.60;59.80
45619;DHT22;31343;47.520;19.144;2023-03-18T08:18:04;13.50;59.00
45619;DHT22;31343;47.520;19.144;2023-03-18T08:20:31;13.30;57.80
45619;DHT22;31343;47.520;19.144;2023-03-18T08:22:57;12.50;59.00
45619;DHT22;31343;47.520;19.144;2023-03-18T08:25:23;13.20;59.40
45619;DHT22;31343;47.520;19.144;2023-03-18T08:27:50;13.60;58.90
45619;DHT22;31343;47.520;19.144;2023-03-18T08:30:17;14.10;58.30
45619;DHT22;31343;47.520;19.144;2023-03-18T08:32:43;13.90;59.00
45619;DHT22;31343;47.520;19.144;2023-03-18T08:35:10;13.80;58.50
45619;DHT22;31343;47.520;19.144;2023-03-18T08:37:37;13.10;58.50
45619;DHT22;31343;47.520;19.144;2023-03-18T08:40:05;12.20;60.00
45619;DHT22;31343;47.520;19.144;2023-03-18T08:42:31;11.70;61.60
45619;DHT22;31343;47.520;19.144;2023-03-18T08:44:57;11.40;61.70
45619;DHT22;31343;47.520;19.144;2023-03-18T08:47:23;11.20;62.80
45619;DHT22;31343;47.520;19.144;2023-03-18T08:49:50;10.90;63.30
45619;DHT22;31343;47.520;19.144;2023-03-18T08:52:16;10.90;63.70
45619;DHT22;31343;47.520;19.144;2023-03-18T08:54:42;10.90;63.60
45619;DHT22;31343;47.520;19.144;2023-03-18T08:57:08;10.90;64.40
45619;DHT22;31343;47.520;19.144;2023-03-18T08:59:35;11.00;63.70
45619;DHT22;31343;47.520;19.144;2023-03-18T09:02:02;11.10;64.00
45619;DHT22;31343;47.520;19.144;2023-03-18T09:04:28;11.50;64.00
45619;DHT22;31343;47.520;19.144;2023-03-18T09:06:55;11.40;63.30
45619;DHT22;31343;47.520;19.144;2023-03-18T09:09:21;11.30;63.40
45619;DHT22;31343;47.520;19.144;2023-03-18T09:11:47;11.20;63.70
45619;DHT22;31343;47.520;19.144;2023-03-18T09:14:12;11.20;65.20
45619;DHT22;31343;47.520;19.144;2023-03-18T09:16:39;11.30;64.40
45619;DHT22;31343;47.520;19.144;2023-03-18T09:19:05;11.00;64.30
45619;DHT22;31343;47.520;19.144;2023-03-18T09:21:30;11.00;64.90
45619;DHT22;31343;47.520;19.144;2023-03-18T09:23:56;11.10;64.60
45619;DHT22;31343;47.520;19.144;2023-03-18T09:26:22;11.20;65.30
45619;DHT22;31343;47.520;19.144;2023-03-18T09:28:48;11.50;64.90
45619;DHT22;31343;47.520;19.144;2023-03-18T09:31:14;11.30;64.10
45619;DHT22;31343;47.520;19.144;2023-03-18T09:33:40;11.40;64.50
45619;DHT22;31343;47.520;19.144;2023-03-18T09:36:08;11.60;64.60
45619;DHT22;31343;47.520;19.144;2023-03-18T09:38:34;11.40;64.70
45619;DHT22;31343;47.520;19.144;2023-03-18T09:43:56;11.40;64.70
45619;DHT22;31343;47.520;19.144;2023-03-18T09:49:37;11.50;65.60
45619;DHT22;31343;47.520;19.144;2023-03-18T09:52:15;11.50;64.50
45619;DHT22;31343;47.520;19.144;2023-03-18T09:54:58;11.60;64.60
45619;DHT22;31343;47.520;19.144;2023-03-18T09:57:31;11.50;65.30
45619;DHT22;31343;47.520;19.144;2023-03-18T10:03:03;11.50;66.00
45619;DHT22;31343;47.520;19.144;2023-03-18T10:05:33;11.60;65.20
45619;DHT22;31343;47.520;19.144;2023-03-18T10:08:18;11.70;65.60
45619;DHT22;31343;47.520;19.144;2023-03-18T10:10:46;11.70;65.80
45619;DHT22;31343;47.520;19.144;2023-03-18T10:13:30;11.60;65.70
45619;DHT22;31343;47.520;19.144;2023-03-18T10:16:01;11.60;65.60
45619;DHT22;31343;47.520;19.144;2023-03-18T10:18:33;11.80;65.40
45619;DHT22;31343;47.520;19.144;2023-03-18T10:26:40;11.80;64.40
45619;DHT22;31343;47.520;19.144;2023-03-18T10:29:10;12.00;65.70
45619;DHT22;31343;47.520;19.144;2023-03-18T10:40:39;12.10;64.50
45619;DHT22;31343;47.520;19.144;2023-03-18T10:43:20;12.00;65.60
45619;DHT22;31343;47.520;19.144;2023-03-18T10:45:48;12.10;65.30
45619;DHT22;31343;47.520;19.144;2023-03-18T10:48:18;12.20;65.10
45619;DHT22;31343;47.520;19.144;2023-03-18T10:50:53;12.30;65.30
45619;DHT22;31343;47.520;19.144;2023-03-18T10:53:31;12.50;65.40
45619;DHT22;31343;47.520;19.144;2023-03-18T10:56:07;12.60;65.80
45619;DHT22;31343;47.520;19.144;2023-03-18T10:58:34;12.40;65.80
45619;DHT22;31343;47.520;19.144;2023-03-18T11:01:00;12.50;65.40
45619;DHT22;31343;47.520;19.144;2023-03-18T11:03:29;12.70;64.20
45619;DHT22;31343;47.520;19.144;2023-03-18T11:05:58;12.80;64.20
45619;DHT22;31343;47.520;19.144;2023-03-18T11:13:47;13.60;62.80
45619;DHT22;31343;47.520;19.144;2023-03-18T11:16:39;14.00;63.30
45619;DHT22;31343;47.520;19.144;2023-03-18T11:22:05;14.30;61.60
45619;DHT22;31343;47.520;19.144;2023-03-18T11:24:37;14.10;62.00
45619;DHT22;31343;47.520;19.144;2023-03-18T11:27:23;14.00;61.90
45619;DHT22;31343;47.520;19.144;2023-03-18T11:29:55;14.40;62.40
45619;DHT22;31343;47.520;19.144;2023-03-18T11:32:30;14.60;62.10
45619;DHT22;31343;47.520;19.144;2023-03-18T11:34:58;15.30;61.00
45619;DHT22;31343;47.520;19.144;2023-03-18T11:37:36;15.00;60.40
45619;DHT22;31343;47.520;19.144;2023-03-18T11:42:41;15.30;59.80
45619;DHT22;31343;47.520;19.144;2023-03-18T11:47:46;16.00;60.30
45619;DHT22;31343;47.520;19.144;2023-03-18T11:50:19;16.20;60.00
45619;DHT22;31343;47.520;19.144;2023-03-18T11:53:03;16.50;58.40
45619;DHT22;31343;47.520;19.144;2023-03-18T11:58:46;17.10;58.60
45619;DHT22;31343;47.520;19.144;2023-03-18T12:10:27;16.30;58.60
45619;DHT22;31343;47.520;19.144;2023-03-18T12:13:16;16.20;59.20
45619;DHT22;31343;47.520;19.144;2023-03-18T12:24:54;17.30;58.10
45619;DHT22;31343;47.520;19.144;2023-03-18T12:30:13;16.40;59.10
45619;DHT22;31343;47.520;19.144;2023-03-18T12:40:44;15.20;62.70
45619;DHT22;31343;47.520;19.144;2023-03-18T12:46:00;15.20;63.00
45619;DHT22;31343;47.520;19.144;2023-03-18T12:48:34;15.40;62.60
45619;DHT22;31343;47.520;19.144;2023-03-18T12:51:13;15.70;62.70
45619;DHT22;31343;47.520;19.144;2023-03-18T12:53:52;15.70;62.40
45619;DHT22;31343;47.520;19.144;2023-03-18T12:56:22;16.20;61.80
45619;DHT22;31343;47.520;19.144;2023-03-18T12:59:04;16.80;61.00
45619;DHT22;31343;47.520;19.144;2023-03-18T13:04:07;16.20;61.60
45619;DHT22;31343;47.520;19.144;2023-03-18T13:06:38;15.70;62.00
45619;DHT22;31343;47.520;19.144;2023-03-18T13:09:12;15.60;63.00
45619;DHT22;31343;47.520;19.144;2023-03-18T13:12:00;15.10;63.40
45619;DHT22;31343;47.520;19.144;2023-03-18T13:16:58;14.80;64.00
45619;DHT22;31343;47.520;19.144;2023-03-18T13:19:25;14.50;64.90
45619;DHT22;31343;47.520;19.144;2023-03-18T13:25:17;14.20;66.00
45619;DHT22;31343;47.520;19.144;2023-03-18T13:30:33;13.70;67.00
45619;DHT22;31343;47.520;19.144;2023-03-18T13:33:17;13.50;67.50
45619;DHT22;31343;47.520;19.144;2023-03-18T13:36:02;13.50;68.00
45619;DHT22;31343;47.520;19.144;2023-03-18T13:44:59;13.40;68.20
45619;DHT22;31343;47.520;19.144;2023-03-18T13:47:07;13.50;68.50
45619;DHT22;31343;47.520;19.144;2023-03-18T13:49:37;13.60;68.30
45619;DHT22;31343;47.520;19.144;2023-03-18T13:52:04;13.70;68.10
45619;DHT22;31343;47.520;19.144;2023-03-18T13:54:45;13.60;68.30
45619;DHT22;31343;47.520;19.144;2023-03-18T13:57:30;13.40;69.00
45619;DHT22;31343;47.520;19.144;2023-03-18T14:00:23;13.40;69.20
45619;DHT22;31343;47.520;19.144;2023-03-18T14:05:39;13.70;69.10
45619;DHT22;31343;47.520;19.144;2023-03-18T14:19:05;13.60;68.50
45619;DHT22;31343;47.520;19.144;2023-03-18T14:21:44;13.60;68.80
45619;DHT22;31343;47.520;19.144;2023-03-18T14:27:14;13.60;68.80
45619;DHT22;31343;47.520;19.144;2023-03-18T14:29:44;13.70;69.10
45619;DHT22;31343;47.520;19.144;2023-03-18T14:32:37;13.80;68.90
45619;DHT22;31343;47.520;19.144;2023-03-18T14:38:00;13.90;68.40
45619;DHT22;31343;47.520;19.144;2023-03-18T14:40:50;13.70;68.30
45619;DHT22;31343;47.520;19.144;2023-03-18T14:45:55;13.70;68.20
45619;DHT22;31343;47.520;19.144;2023-03-18T14:48:31;13.60;68.10
45619;DHT22;31343;47.520;19.144;2023-03-18T14:51:16;13.60;68.50
45619;DHT22;31343;47.520;19.144;2023-03-18T14:53:55;13.50;68.60
45619;DHT22;31343;47.520;19.144;2023-03-18T14:56:28;13.50;68.70
45619;DHT22;31343;47.520;19.144;2023-03-18T14:58:54;13.50;69.00
45619;DHT22;31343;47.520;19.144;2023-03-18T15:01:23;13.60;69.00
45619;DHT22;31343;47.520;19.144;2023-03-18T15:03:51;13.60;69.00
45619;DHT22;31343;47.520;19.144;2023-03-18T15:06:21;13.60;68.80
45619;DHT22;31343;47.520;19.144;2023-03-18T15:08:55;13.60;68.80
45619;DHT22;31343;47.520;19.144;2023-03-18T15:11:23;13.60;68.80
45619;DHT22;31343;47.520;19.144;2023-03-18T15:13:53;13.50;68.90
45619;DHT22;31343;47.520;19.144;2023-03-18T15:16:22;13.50;69.60
45619;DHT22;31343;47.520;19.144;2023-03-18T15:18:53;13.40;69.40
45619;DHT22;31343;47.520;19.144;2023-03-18T15:21:23;13.40;69.40
45619;DHT22;31343;47.520;19.144;2023-03-18T15:23:56;13.40;69.80
45619;DHT22;31343;47.520;19.144;2023-03-18T15:26:23;13.40;69.90
45619;DHT22;31343;47.520;19.144;2023-03-18T15:28:57;13.50;70.40
45619;DHT22;31343;47.520;19.144;2023-03-18T15:31:41;13.30;70.00
45619;DHT22;31343;47.520;19.144;2023-03-18T15:34:20;13.30;70.50
45619;DHT22;31343;47.520;19.144;2023-03-18T15:36:55;13.30;70.70
45619;DHT22;31343;47.520;19.144;2023-03-18T15:39:31;13.30;70.70
45619;DHT22;31343;47.520;19.144;2023-03-18T15:41:58;13.40;70.90
45619;DHT22;31343;47.520;19.144;2023-03-18T15:44:30;13.40;70.60
45619;DHT22;31343;47.520;19.144;2023-03-18T15:47:10;13.30;70.80
45619;DHT22;31343;47.520;19.144;2023-03-18T15:50:14;13.30;71.00
45619;DHT22;31343;47.520;19.144;2023-03-18T15:52:46;13.20;71.10
45619;DHT22;31343;47.520;19.144;2023-03-18T15:55:32;13.10;71.40
45619;DHT22;31343;47.520;19.144;2023-03-18T15:58:04;13.10;71.40
45619;DHT22;31343;47.520;19.144;2023-03-18T16:00:33;13.00;71.40
45619;DHT22;31343;47.520;19.144;2023-03-18T16:02:59;13.00;71.70
45619;DHT22;31343;47.520;19.144;2023-03-18T16:05:26;13.00;71.80
45619;DHT22;31343;47.520;19.144;2023-03-18T16:07:53;13.00;71.50
45619;DHT22;31343;47.520;19.144;2023-03-18T16:10:22;13.10;71.60
45619;DHT22;31343;47.520;19.144;2023-03-18T16:12:59;13.00;71.50
45619;DHT22;31343;47.520;19.144;2023-03-18T16:15:27;12.90;71.60
45619;DHT22;31343;47.520;19.144;2023-03-18T16:17:55;13.00;72.00
45619;DHT22;31343;47.520;19.144;2023-03-18T16:20:26;12.90;72.00
45619;DHT22;31343;47.520;19.144;2023-03-18T16:22:53;12.90;72.00
45619;DHT22;31343;47.520;19.144;2023-03-18T16:25:19;12.90;72.10
45619;DHT22;31343;47.520;19.144;2023-03-18T16:27:50;12.80;72.30
45619;DHT22;31343;47.520;19.144;2023-03-18T16:30:27;12.80;72.50
45619;DHT22;31343;47.520;19.144;2023-03-18T16:32:54;12.80;72.70
45619;DHT22;31343;47.520;19.144;2023-03-18T16:35:23;12.70;72.60
45619;DHT22;31343;47.520;19.144;2023-03-18T16:37:50;12.60;73.00
45619;DHT22;31343;47.520;19.144;2023-03-18T16:42:44;12.60;73.40
45619;DHT22;31343;47.520;19.144;2023-03-18T16:45:32;12.50;73.50
45619;DHT22;31343;47.520;19.144;2023-03-18T16:48:01;12.50;73.70
45619;DHT22;31343;47.520;19.144;2023-03-18T16:50:37;12.40;73.90
45619;DHT22;31343;47.520;19.144;2023-03-18T16:53:14;12.40;74.40
45619;DHT22;31343;47.520;19.144;2023-03-18T16:55:48;12.30;74.60
45619;DHT22;31343;47.520;19.144;2023-03-18T16:58:19;12.20;75.00
45619;DHT22;31343;47.520;19.144;2023-03-18T17:00:46;12.20;75.30
45619;DHT22;31343;47.520;19.144;2023-03-18T17:03:15;12.10;75.30
45619;DHT22;31343;47.520;19.144;2023-03-18T17:05:43;12.10;75.70
45619;DHT22;31343;47.520;19.144;2023-03-18T17:08:11;12.00;76.00
45619;DHT22;31343;47.520;19.144;2023-03-18T17:10:37;11.90;76.40
45619;DHT22;31343;47.520;19.144;2023-03-18T17:13:06;11.90;76.70
45619;DHT22;31343;47.520;19.144;2023-03-18T17:15:36;11.80;76.90
45619;DHT22;31343;47.520;19.144;2023-03-18T17:18:04;11.80;77.20
45619;DHT22;31343;47.520;19.144;2023-03-18T17:20:30;11.70;77.40
45619;DHT22;31343;47.520;19.144;2023-03-18T17:23:00;11.70;77.70
45619;DHT22;31343;47.520;19.144;2023-03-18T17:25:27;11.70;77.80
45619;DHT22;31343;47.520;19.144;2023-03-18T17:28:02;11.60;78.10
45619;DHT22;31343;47.520;19.144;2023-03-18T17:30:38;11.50;78.40
45619;DHT22;31343;47.520;19.144;2023-03-18T17:33:20;11.40;79.00
45619;DHT22;31343;47.520;19.144;2023-03-18T17:35:46;11.40;79.40